sensor_id;sensor_type;location;lat;lon;timestamp;temperature;humidity
45969;DHT22;31676;40.444;-3.668;2022-12-18T00:01:34;22.20;75.90
45969;DHT22;31676;40.444;-3.668;2022-12-18T00:04:02;22.20;75.90
45969;DHT22;31676;40.444;-3.668;2022-12-18T00:06:31;22.20;75.90
45969;DHT22;31676;40.444;-3.668;2022-12-18T00:08:58;22.20;75.80
45969;DHT22;31676;40.444;-3.668;2022-12-18T00:11:25;22.20;75.90
45969;DHT22;31676;40.444;-3.668;2022-12-18T00:13:51;22.20;75.90
45969;DHT22;31676;40.444;-3.668;2022-12-18T00:16:20;22.20;75.90
45969;DHT22;31676;40.444;-3.668;2022-12-18T00:18:47;22.20;75.90
45969;DHT22;31676;40.444;-3.668;2022-12-18T00:21:13;22.10;75.80
45969;DHT22;31676;40.444;-3.668;2022-12-18T00:23:40;22.20;75.90
45969;DHT22;31676;40.444;-3.668;2022-12-18T00:26:07;22.20;75.90
45969;DHT22;31676;40.444;-3.668;2022-12-18T00:28:33;22.20;75.90
45969;DHT22;31676;40.444;-3.668;2022-12-18T00:31:00;22.20;75.90
45969;DHT22;31676;40.444;-3.668;2022-12-18T00:33:25;22.10;75.80
45969;DHT22;31676;40.444;-3.668;2022-12-18T00:35:51;22.20;75.90
45969;DHT22;31676;40.444;-3.668;2022-12-18T00:38:16;22.20;75.90
45969;DHT22;31676;40.444;-3.668;2022-12-18T00:40:42;22.10;75.80
45969;DHT22;31676;40.444;-3.668;2022-12-18T00:43:08;22.10;75.80
45969;DHT22;31676;40.444;-3.668;2022-12-18T00:45:34;22.10;75.80
45969;DHT22;31676;40.444;-3.668;2022-12-18T00:47:59;22.10;75.80
45969;DHT22;31676;40.444;-3.668;2022-12-18T00:50:25;22.20;75.90
45969;DHT22;31676;40.444;-3.668;2022-12-18T00:52:51;22.20;75.90
45969;DHT22;31676;40.444;-3.668;2022-12-18T00:55:17;22.20;75.90
45969;DHT22;31676;40.444;-3.668;2022-12-18T00:57:43;22.20;75.90
45969;DHT22;31676;40.444;-3.668;2022-12-18T01:00:10;22.20;75.90
45969;DHT22;31676;40.444;-3.668;2022-12-18T01:02:36;22.10;75.80
45969;DHT22;31676;40.444;-3.668;2022-12-18T01:05:02;22.10;75.80
45969;DHT22;31676;40.444;-3.668;2022-12-18T01:07:27;22.20;75.90
45969;DHT22;31676;40.444;-3.668;2022-12-18T01:09:53;22.20;75.90
45969;DHT22;31676;40.444;-3.668;2022-12-18T01:12:19;22.10;75.80
45969;DHT22;31676;40.444;-3.668;2022-12-18T01:14:44;22.20;75.90
45969;DHT22;31676;40.444;-3.668;2022-12-18T01:17:10;22.20;75.90
45969;DHT22;31676;40.444;-3.668;2022-12-18T01:19:36;22.10;75.80
45969;DHT22;31676;40.444;-3.668;2022-12-18T01:22:01;22.20;75.90
45969;DHT22;31676;40.444;-3.668;2022-12-18T01:24:27;22.10;75.80
45969;DHT22;31676;40.444;-3.668;2022-12-18T01:26:53;22.20;75.90
45969;DHT22;31676;40.444;-3.668;2022-12-18T01:29:18;22.10;75.80
45969;DHT22;31676;40.444;-3.668;2022-12-18T01:31:44;22.10;75.90
45969;DHT22;31676;40.444;-3.668;2022-12-18T01:34:10;22.20;75.90
45969;DHT22;31676;40.444;-3.668;2022-12-18T01:36:37;22.10;75.80
45969;DHT22;31676;40.444;-3.668;2022-12-18T01:39:09;22.10;75.90
45969;DHT22;31676;40.444;-3.668;2022-12-18T01:41:35;22.10;75.90
45969;DHT22;31676;40.444;-3.668;2022-12-18T01:47:04;22.10;75.80
45969;DHT22;31676;40.444;-3.668;2022-12-18T01:49:30;22.20;75.90
45969;DHT22;31676;40.444;-3.668;2022-12-18T01:51:56;22.10;75.90
45969;DHT22;31676;40.444;-3.668;2022-12-18T01:54:21;22.10;75.90
45969;DHT22;31676;40.444;-3.668;2022-12-18T01:56:47;22.10;75.90
45969;DHT22;31676;40.444;-3.668;2022-12-18T01:59:13;22.10;75.90
45969;DHT22;31676;40.444;-3.668;2022-12-18T02:01:38;22.10;75.90
45969;DHT22;31676;40.444;-3.668;2022-12-18T02:04:17;22.10;75.90
45969;DHT22;31676;40.444;-3.668;2022-12-18T02:06:43;22.10;75.90
45969;DHT22;31676;40.444;-3.668;2022-12-18T02:09:20;22.10;75.90
45969;DHT22;31676;40.444;-3.668;2022-12-18T02:14:28;22.10;75.90
45969;DHT22;31676;40.444;-3.668;2022-12-18T02:17:11;22.10;75.90
45969;DHT22;31676;40.444;-3.668;2022-12-18T02:27:15;22.10;75.90
45969;DHT22;31676;40.444;-3.668;2022-12-18T02:29:46;22.10;75.90
45969;DHT22;31676;40.444;-3.668;2022-12-18T02:32:19;22.10;75.90
45969;DHT22;31676;40.444;-3.668;2022-12-18T02:34:47;22.10;75.90
45969;DHT22;31676;40.444;-3.668;2022-12-18T02:37:14;22.10;75.90
45969;DHT22;31676;40.444;-3.668;2022-12-18T02:39:41;22.10;75.90
45969;DHT22;31676;40.444;-3.668;2022-12-18T02:42:08;22.10;75.90
45969;DHT22;31676;40.444;-3.668;2022-12-18T02:44:34;22.10;75.90
45969;DHT22;31676;40.444;-3.668;2022-12-18T02:47:00;22.10;75.90
45969;DHT22;31676;40.444;-3.668;2022-12-18T02:52:17;22.10;76.60
45969;DHT22;31676;40.444;-3.668;2022-12-18T02:54:50;22.10;75.90
45969;DHT22;31676;40.444;-3.668;2022-12-18T03:02:29;22.00;75.90
45969;DHT22;31676;40.444;-3.668;2022-12-18T03:07:33;22.10;76.00
45969;DHT22;31676;40.444;-3.668;2022-12-18T03:10:02;22.10;75.90
45969;DHT22;31676;40.444;-3.668;2022-12-18T03:12:35;22.10;75.90
45969;DHT22;31676;40.444;-3.668;2022-12-18T03:15:03;22.00;75.90
45969;DHT22;31676;40.444;-3.668;2022-12-18T03:17:30;22.00;75.90
45969;DHT22;31676;40.444;-3.668;2022-12-18T03:19:58;22.10;75.90
45969;DHT22;31676;40.444;-3.668;2022-12-18T03:22:25;22.00;75.90
45969;DHT22;31676;40.444;-3.668;2022-12-18T03:24:52;22.10;76.00
45969;DHT22;31676;40.444;-3.668;2022-12-18T03:27:19;22.10;75.90
45969;DHT22;31676;40.444;-3.668;2022-12-18T03:29:50;22.10;75.90
45969;DHT22;31676;40.444;-3.668;2022-12-18T03:32:20;22.10;76.00
45969;DHT22;31676;40.444;-3.668;2022-12-18T03:34:46;22.10;75.90
45969;DHT22;31676;40.444;-3.668;2022-12-18T03:37:14;22.00;75.90
45969;DHT22;31676;40.444;-3.668;2022-12-18T03:39:40;22.10;76.00
45969;DHT22;31676;40.444;-3.668;2022-12-18T03:45:19;22.00;75.90
45969;DHT22;31676;40.444;-3.668;2022-12-18T03:47:32;22.00;75.90
45969;DHT22;31676;40.444;-3.668;2022-12-18T03:50:10;22.00;75.90
45969;DHT22;31676;40.444;-3.668;2022-12-18T03:53:22;22.00;75.90
45969;DHT22;31676;40.444;-3.668;2022-12-18T03:55:26;22.00;75.90
45969;DHT22;31676;40.444;-3.668;2022-12-18T03:57:52;22.00;75.90
45969;DHT22;31676;40.444;-3.668;2022-12-18T04:00:19;22.00;75.90
45969;DHT22;31676;40.444;-3.668;2022-12-18T04:02:47;22.00;75.90
45969;DHT22;31676;40.444;-3.668;2022-12-18T04:05:15;22.00;75.90
45969;DHT22;31676;40.444;-3.668;2022-12-18T04:07:41;22.00;75.90
45969;DHT22;31676;40.444;-3.668;2022-12-18T04:10:07;22.00;75.90
45969;DHT22;31676;40.444;-3.668;2022-12-18T04:12:37;22.00;75.90
45969;DHT22;31676;40.444;-3.668;2022-12-18T04:15:03;22.00;75.90
45969;DHT22;31676;40.444;-3.668;2022-12-18T04:17:29;22.00;75.90
45969;DHT22;31676;40.444;-3.668;2022-12-18T04:19:54;22.00;75.90
45969;DHT22;31676;40.444;-3.668;2022-12-18T04:22:20;22.00;75.90
45969;DHT22;31676;40.444;-3.668;2022-12-18T04:24:46;22.00;75.90
45969;DHT22;31676;40.444;-3.668;2022-12-18T04:27:11;22.00;75.90
45969;DHT22;31676;40.444;-3.668;2022-12-18T04:29:37;22.00;75.90
45969;DHT22;31676;40.444;-3.668;2022-12-18T04:32:03;22.00;75.90
45969;DHT22;31676;40.444;-3.668;2022-12-18T04:34:29;22.00;75.90
45969;DHT22;31676;40.444;-3.668;2022-12-18T04:36:54;22.00;75.90
45969;DHT22;31676;40.444;-3.668;2022-12-18T04:39:20;22.00;75.90
45969;DHT22;31676;40.444;-3.668;2022-12-18T04:41:46;22.00;75.90
45969;DHT22;31676;40.444;-3.668;2022-12-18T04:44:12;22.00;75.90
45969;DHT22;31676;40.444;-3.668;2022-12-18T04:46:37;22.00;75.90
45969;DHT22;31676;40.444;-3.668;2022-12-18T04:49:03;22.00;75.90
45969;DHT22;31676;40.444;-3.668;2022-12-18T04:51:29;22.00;76.00
45969;DHT22;31676;40.444;-3.668;2022-12-18T04:53:54;22.00;75.90
45969;DHT22;31676;40.444;-3.668;2022-12-18T04:56:20;22.00;75.90
45969;DHT22;31676;40.444;-3.668;2022-12-18T04:58:47;22.00;76.00
45969;DHT22;31676;40.444;-3.668;2022-12-18T05:01:16;22.00;75.90
45969;DHT22;31676;40.444;-3.668;2022-12-18T05:03:41;22.00;75.90
45969;DHT22;31676;40.444;-3.668;2022-12-18T05:06:07;22.00;75.90
45969;DHT22;31676;40.444;-3.668;2022-12-18T05:08:33;22.00;75.90
45969;DHT22;31676;40.444;-3.668;2022-12-18T05:11:09;22.00;76.00
45969;DHT22;31676;40.444;-3.668;2022-12-18T05:13:36;22.00;75.90
45969;DHT22;31676;40.444;-3.668;2022-12-18T05:16:03;22.00;76.00
45969;DHT22;31676;40.444;-3.668;2022-12-18T05:18:29;22.00;75.90
45969;DHT22;31676;40.444;-3.668;2022-12-18T05:20:55;22.00;75.90
45969;DHT22;31676;40.444;-3.668;2022-12-18T05:23:22;22.00;75.90
45969;DHT22;31676;40.444;-3.668;2022-12-18T05:25:54;22.00;75.90
45969;DHT22;31676;40.444;-3.668;2022-12-18T05:28:21;22.00;75.90
45969;DHT22;31676;40.444;-3.668;2022-12-18T05:30:47;22.00;75.90
45969;DHT22;31676;40.444;-3.668;2022-12-18T05:33:13;22.00;75.90
45969;DHT22;31676;40.444;-3.668;2022-12-18T05:35:39;22.00;75.90
45969;DHT22;31676;40.444;-3.668;2022-12-18T05:38:05;22.00;76.30
45969;DHT22;31676;40.444;-3.668;2022-12-18T05:40:30;22.00;75.90
45969;DHT22;31676;40.444;-3.668;2022-12-18T05:42:56;21.90;75.90
45969;DHT22;31676;40.444;-3.668;2022-12-18T05:45:22;22.00;76.00
45969;DHT22;31676;40.444;-3.668;2022-12-18T05:47:47;22.00;75.90
45969;DHT22;31676;40.444;-3.668;2022-12-18T05:50:13;22.00;76.00
45969;DHT22;31676;40.444;-3.668;2022-12-18T05:52:39;22.00;76.00
45969;DHT22;31676;40.444;-3.668;2022-12-18T05:55:04;22.00;76.00
45969;DHT22;31676;40.444;-3.668;2022-12-18T05:57:30;22.00;75.90
45969;DHT22;31676;40.444;-3.668;2022-12-18T05:59:56;22.00;75.90
45969;DHT22;31676;40.444;-3.668;2022-12-18T06:02:26;22.00;76.00
45969;DHT22;31676;40.444;-3.668;2022-12-18T06:04:51;22.00;76.00
45969;DHT22;31676;40.444;-3.668;2022-12-18T06:07:17;22.00;76.00
45969;DHT22;31676;40.444;-3.668;2022-12-18T06:09:43;22.00;76.00
45969;DHT22;31676;40.444;-3.668;2022-12-18T06:12:08;22.00;76.00
45969;DHT22;31676;40.444;-3.668;2022-12-18T06:14:34;22.00;75.90
45969;DHT22;31676;40.444;-3.668;2022-12-18T06:17:00;22.00;76.00
45969;DHT22;31676;40.444;-3.668;2022-12-18T06:19:26;21.90;75.90
45969;DHT22;31676;40.444;-3.668;2022-12-18T06:21:51;22.00;76.00
45969;DHT22;31676;40.444;-3.668;2022-12-18T06:24:17;21.90;75.90
45969;DHT22;31676;40.444;-3.668;2022-12-18T06:26:43;21.90;75.90
45969;DHT22;31676;40.444;-3.668;2022-12-18T06:29:09;22.00;76.00
45969;DHT22;31676;40.444;-3.668;2022-12-18T06:31:34;21.90;75.90
45969;DHT22;31676;40.444;-3.668;2022-12-18T06:34:03;21.90;75.90
45969;DHT22;31676;40.444;-3.668;2022-12-18T06:36:29;21.90;75.90
45969;DHT22;31676;40.444;-3.668;2022-12-18T06:38:56;21.90;75.90
45969;DHT22;31676;40.444;-3.668;2022-12-18T06:41:21;21.90;75.90
45969;DHT22;31676;40.444;-3.668;2022-12-18T06:43:47;21.90;75.90
45969;DHT22;31676;40.444;-3.668;2022-12-18T06:46:13;21.90;76.50
45969;DHT22;31676;40.444;-3.668;2022-12-18T06:48:39;21.90;75.90
45969;DHT22;31676;40.444;-3.668;2022-12-18T06:51:05;21.90;75.90
45969;DHT22;31676;40.444;-3.668;2022-12-18T06:53:31;21.90;75.90
45969;DHT22;31676;40.444;-3.668;2022-12-18T06:56:00;21.90;75.90
45969;DHT22;31676;40.444;-3.668;2022-12-18T06:58:26;21.90;75.90
45969;DHT22;31676;40.444;-3.668;2022-12-18T07:00:52;21.90;75.90
45969;DHT22;31676;40.444;-3.668;2022-12-18T07:03:18;21.90;76.00
45969;DHT22;31676;40.444;-3.668;2022-12-18T07:05:43;21.90;75.90
45969;DHT22;31676;40.444;-3.668;2022-12-18T07:08:09;21.90;76.00
45969;DHT22;31676;40.444;-3.668;2022-12-18T07:10:40;21.90;75.90
45969;DHT22;31676;40.444;-3.668;2022-12-18T07:13:06;21.90;75.90
45969;DHT22;31676;40.444;-3.668;2022-12-18T07:15:31;21.90;75.90
45969;DHT22;31676;40.444;-3.668;2022-12-18T07:17:58;21.90;75.90
45969;DHT22;31676;40.444;-3.668;2022-12-18T07:20:23;21.90;75.90
45969;DHT22;31676;40.444;-3.668;2022-12-18T07:22:49;21.90;75.90
45969;DHT22;31676;40.444;-3.668;2022-12-18T07:25:15;21.90;75.90
45969;DHT22;31676;40.444;-3.668;2022-12-18T07:27:40;21.90;76.00
45969;DHT22;31676;40.444;-3.668;2022-12-18T07:30:06;21.90;75.90
45969;DHT22;31676;40.444;-3.668;2022-12-18T07:32:32;21.90;76.00
45969;DHT22;31676;40.444;-3.668;2022-12-18T07:34:58;21.90;75.90
45969;DHT22;31676;40.444;-3.668;2022-12-18T07:37:23;21.90;75.90
45969;DHT22;31676;40.444;-3.668;2022-12-18T07:39:49;21.90;75.90
45969;DHT22;31676;40.444;-3.668;2022-12-18T07:42:14;21.90;75.90
45969;DHT22;31676;40.444;-3.668;2022-12-18T07:44:55;21.90;76.00
45969;DHT22;31676;40.444;-3.668;2022-12-18T07:47:21;21.90;75.90
45969;DHT22;31676;40.444;-3.668;2022-12-18T07:49:47;21.90;76.00
45969;DHT22;31676;40.444;-3.668;2022-12-18T07:52:13;21.90;76.00
45969;DHT22;31676;40.444;-3.668;2022-12-18T07:54:39;21.90;76.00
45969;DHT22;31676;40.444;-3.668;2022-12-18T07:57:05;21.90;76.00
45969;DHT22;31676;40.444;-3.668;2022-12-18T07:59:32;21.80;75.90
45969;DHT22;31676;40.444;-3.668;2022-12-18T08:01:57;21.90;76.00
45969;DHT22;31676;40.444;-3.668;2022-12-18T08:04:24;21.90;76.00
45969;DHT22;31676;40.444;-3.668;2022-12-18T08:06:49;21.90;76.00
45969;DHT22;31676;40.444;-3.668;2022-12-18T08:09:15;21.90;76.00
45969;DHT22;31676;40.444;-3.668;2022-12-18T08:11:41;21.90;76.00
45969;DHT22;31676;40.444;-3.668;2022-12-18T08:14:07;21.90;76.00
45969;DHT22;31676;40.444;-3.668;2022-12-18T08:16:32;21.90;76.00
45969;DHT22;31676;40.444;-3.668;2022-12-18T08:18:58;21.90;76.00
45969;DHT22;31676;40.444;-3.668;2022-12-18T08:21:25;21.90;76.00
45969;DHT22;31676;40.444;-3.668;2022-12-18T08:23:52;21.90;76.00
45969;DHT22;31676;40.444;-3.668;2022-12-18T08:26:18;21.80;75.90
45969;DHT22;31676;40.444;-3.668;2022-12-18T08:28:44;21.90;76.00
45969;DHT22;31676;40.444;-3.668;2022-12-18T08:31:09;21.90;76.00
45969;DHT22;31676;40.444;-3.668;2022-12-18T08:33:35;21.80;75.90
45969;DHT22;31676;40.444;-3.668;2022-12-18T08:36:03;21.80;75.90
45969;DHT22;31676;40.444;-3.668;2022-12-18T08:38:29;21.80;75.90
45969;DHT22;31676;40.444;-3.668;2022-12-18T08:43:26;21.80;75.90
45969;DHT22;31676;40.444;-3.668;2022-12-18T08:46:10;21.80;75.90
45969;DHT22;31676;40.444;-3.668;2022-12-18T08:48:36;21.80;75.90
45969;DHT22;31676;40.444;-3.668;2022-12-18T08:51:01;21.90;76.00
45969;DHT22;31676;40.444;-3.668;2022-12-18T08:53:27;21.80;75.90
45969;DHT22;31676;40.444;-3.668;2022-12-18T08:55:53;21.80;75.90
45969;DHT22;31676;40.444;-3.668;2022-12-18T08:58:19;21.80;75.90
45969;DHT22;31676;40.444;-3.668;2022-12-18T09:00:44;21.80;75.90
45969;DHT22;31676;40.444;-3.668;2022-12-18T09:03:14;21.80;76.00
45969;DHT22;31676;40.444;-3.668;2022-12-18T09:05:40;21.80;76.00
45969;DHT22;31676;40.444;-3.668;2022-12-18T09:08:06;21.80;75.90
45969;DHT22;31676;40.444;-3.668;2022-12-18T09:10:32;21.80;75.90
45969;DHT22;31676;40.444;-3.668;2022-12-18T09:12:57;21.80;76.00
45969;DHT22;31676;40.444;-3.668;2022-12-18T09:15:23;21.80;75.90
45969;DHT22;31676;40.444;-3.668;2022-12-18T09:17:49;21.80;75.90
45969;DHT22;31676;40.444;-3.668;2022-12-18T09:20:15;21.80;75.90
45969;DHT22;31676;40.444;-3.668;2022-12-18T09:22:41;21.80;75.90
45969;DHT22;31676;40.444;-3.668;2022-12-18T09:25:07;21.80;76.00
45969;DHT22;31676;40.444;-3.668;2022-12-18T09:27:35;21.80;75.90
45969;DHT22;31676;40.444;-3.668;2022-12-18T09:30:01;21.80;75.90
45969;DHT22;31676;40.444;-3.668;2022-12-18T09:32:27;21.80;76.00
45969;DHT22;31676;40.444;-3.668;2022-12-18T09:34:53;21.80;75.90
45969;DHT22;31676;40.444;-3.668;2022-12-18T09:37:18;21.80;76.00
45969;DHT22;31676;40.444;-3.668;2022-12-18T09:39:44;21.80;75.90
45969;DHT22;31676;40.444;-3.668;2022-12-18T09:42:12;21.80;75.90
45969;DHT22;31676;40.444;-3.668;2022-12-18T09:44:44;21.80;75.90
45969;DHT22;31676;40.444;-3.668;2022-12-18T09:47:34;21.80;76.00
45969;DHT22;31676;40.444;-3.668;2022-12-18T09:49:59;21.80;76.00
45969;DHT22;31676;40.444;-3.668;2022-12-18T09:54:57;21.80;76.00
45969;DHT22;31676;40.444;-3.668;2022-12-18T09:57:24;21.80;76.00
45969;DHT22;31676;40.444;-3.668;2022-12-18T09:59:58;21.80;76.00
45969;DHT22;31676;40.444;-3.668;2022-12-18T10:02:26;21.80;76.00
45969;DHT22;31676;40.444;-3.668;2022-12-18T10:10:11;21.80;76.00
45969;DHT22;31676;40.444;-3.668;2022-12-18T10:15:15;21.80;76.00
45969;DHT22;31676;40.444;-3.668;2022-12-18T10:17:56;21.80;76.00
45969;DHT22;31676;40.444;-3.668;2022-12-18T10:23:24;21.80;76.00
45969;DHT22;31676;40.444;-3.668;2022-12-18T10:26:12;21.80;76.00
45969;DHT22;31676;40.444;-3.668;2022-12-18T10:28:38;21.80;76.00
45969;DHT22;31676;40.444;-3.668;2022-12-18T10:31:05;21.80;76.00
45969;DHT22;31676;40.444;-3.668;2022-12-18T10:33:32;21.80;76.00
45969;DHT22;31676;40.444;-3.668;2022-12-18T10:35:58;21.80;76.00
45969;DHT22;31676;40.444;-3.668;2022-12-18T10:38:28;21.80;76.00
45969;DHT22;31676;40.444;-3.668;2022-12-18T10:41:01;21.80;76.00
45969;DHT22;31676;40.444;-3.668;2022-12-18T10:43:31;21.80;75.90
45969;DHT22;31676;40.444;-3.668;2022-12-18T10:46:02;21.80;75.90
45969;DHT22;31676;40.444;-3.668;2022-12-18T10:48:28;21.80;75.90
45969;DHT22;31676;40.444;-3.668;2022-12-18T10:50:54;21.80;75.90
45969;DHT22;31676;40.444;-3.668;2022-12-18T10:53:29;21.80;75.90
45969;DHT22;31676;40.444;-3.668;2022-12-18T10:55:56;21.80;76.00
45969;DHT22;31676;40.444;-3.668;2022-12-18T10:58:27;21.80;76.00
45969;DHT22;31676;40.444;-3.668;2022-12-18T11:01:05;21.80;75.90
45969;DHT22;31676;40.444;-3.668;2022-12-18T11:08:28;21.80;75.90
45969;DHT22;31676;40.444;-3.668;2022-12-18T11:10:54;21.80;75.90
45969;DHT22;31676;40.444;-3.668;2022-12-18T11:13:20;21.80;75.90
45969;DHT22;31676;40.444;-3.668;2022-12-18T11:15:47;21.80;75.90
45969;DHT22;31676;40.444;-3.668;2022-12-18T11:20:58;21.80;75.90
45969;DHT22;31676;40.444;-3.668;2022-12-18T11:23:25;21.90;75.90
45969;DHT22;31676;40.444;-3.668;2022-12-18T11:25:52;21.90;75.90
45969;DHT22;31676;40.444;-3.668;2022-12-18T11:28:25;21.80;75.90
45969;DHT22;31676;40.444;-3.668;2022-12-18T11:31:12;21.90;75.90
45969;DHT22;31676;40.444;-3.668;2022-12-18T11:33:39;21.90;75.90
45969;DHT22;31676;40.444;-3.668;2022-12-18T11:36:05;21.90;75.80
45969;DHT22;31676;40.444;-3.668;2022-12-18T11:38:37;21.90;75.90
45969;DHT22;31676;40.444;-3.668;2022-12-18T11:41:47;21.90;75.80
45969;DHT22;31676;40.444;-3.668;2022-12-18T11:44:29;21.90;75.80
45969;DHT22;31676;40.444;-3.668;2022-12-18T11:47:01;21.90;75.90
45969;DHT22;31676;40.444;-3.668;2022-12-18T11:49:32;21.90;75.80
45969;DHT22;31676;40.444;-3.668;2022-12-18T11:54:25;21.90;75.90
45969;DHT22;31676;40.444;-3.668;2022-12-18T11:56:53;21.90;75.80
45969;DHT22;31676;40.444;-3.668;2022-12-18T12:07:33;21.90;75.80
45969;DHT22;31676;40.444;-3.668;2022-12-18T12:09:38;21.90;75.80
45969;DHT22;31676;40.444;-3.668;2022-12-18T12:14:57;22.00;75.80
45969;DHT22;31676;40.444;-3.668;2022-12-18T12:17:49;22.00;75.80
45969;DHT22;31676;40.444;-3.668;2022-12-18T12:20:20;22.00;75.80
45969;DHT22;31676;40.444;-3.668;2022-12-18T12:22:59;22.00;75.80
45969;DHT22;31676;40.444;-3.668;2022-12-18T12:25:40;22.00;75.80
45969;DHT22;31676;40.444;-3.668;2022-12-18T12:38:30;22.00;75.80
45969;DHT22;31676;40.444;-3.668;2022-12-18T12:40:59;22.00;75.80
45969;DHT22;31676;40.444;-3.668;2022-12-18T12:46:05;22.00;75.80
45969;DHT22;31676;40.444;-3.668;2022-12-18T12:51:00;22.00;75.80
45969;DHT22;31676;40.444;-3.668;2022-12-18T12:53:29;22.00;75.70
45969;DHT22;31676;40.444;-3.668;2022-12-18T12:55:56;22.00;75.80
45969;DHT22;31676;40.444;-3.668;2022-12-18T12:58:32;22.00;75.80
45969;DHT22;31676;40.444;-3.668;2022-12-18T13:01:04;22.00;75.80
45969;DHT22;31676;40.444;-3.668;2022-12-18T13:06:03;22.00;75.70
45969;DHT22;31676;40.444;-3.668;2022-12-18T13:08:30;22.00;75.80
45969;DHT22;31676;40.444;-3.668;2022-12-18T13:10:57;22.10;75.80
45969;DHT22;31676;40.444;-3.668;2022-12-18T13:13:52;22.00;75.70
45969;DHT22;31676;40.444;-3.668;2022-12-18T13:16:19;22.10;75.80
45969;DHT22;31676;40.444;-3.668;2022-12-18T13:18:48;22.10;75.80
45969;DHT22;31676;40.444;-3.668;2022-12-18T13:21:36;22.10;75.80
45969;DHT22;31676;40.444;-3.668;2022-12-18T13:26:45;22.10;75.70
45969;DHT22;31676;40.444;-3.668;2022-12-18T13:29:11;22.10;75.80
45969;DHT22;31676;40.444;-3.668;2022-12-18T13:36:36;22.10;75.70
45969;DHT22;31676;40.444;-3.668;2022-12-18T13:41:34;22.10;75.70
45969;DHT22;31676;40.444;-3.668;2022-12-18T13:46:58;22.10;75.70
45969;DHT22;31676;40.444;-3.668;2022-12-18T13:51:56;22.10;75.70
45969;DHT22;31676;40.444;-3.668;2022-12-18T13:54:25;22.10;75.70
45969;DHT22;31676;40.444;-3.668;2022-12-18T13:56:54;22.10;75.70
45969;DHT22;31676;40.444;-3.668;2022-12-18T13:59:21;22.10;75.70
45969;DHT22;31676;40.444;-3.668;2022-12-18T14:01:56;22.10;75.70
45969;DHT22;31676;40.444;-3.668;2022-12-18T14:04:24;22.10;75.70
45969;DHT22;31676;40.444;-3.668;2022-12-18T14:06:55;22.10;75.70
45969;DHT22;31676;40.444;-3.668;2022-12-18T14:09:23;22.10;75.70
45969;DHT22;31676;40.444;-3.668;2022-12-18T14:11:50;22.10;75.70
45969;DHT22;31676;40.444;-3.668;2022-12-18T14:14:17;22.10;75.70
45969;DHT22;31676;40.444;-3.668;2022-12-18T14:16:43;22.20;75.70
45969;DHT22;31676;40.444;-3.668;2022-12-18T14:19:16;22.20;75.70
45969;DHT22;31676;40.444;-3.668;2022-12-18T14:21:48;22.10;75.60
45969;DHT22;31676;40.444;-3.668;2022-12-18T14:26:40;22.20;75.70
45969;DHT22;31676;40.444;-3.668;2022-12-18T14:29:20;22.20;75.70
45969;DHT22;31676;40.444;-3.668;2022-12-18T14:31:46;22.10;75.60
45969;DHT22;31676;40.444;-3.668;2022-12-18T14:34:16;22.20;75.70
45969;DHT22;31676;40.444;-3.668;2022-12-18T14:36:41;22.10;75.70
45969;DHT22;31676;40.444;-3.668;2022-12-18T14:39:17;22.20;75.70
45969;DHT22;31676;40.444;-3.668;2022-12-18T14:41:43;22.10;75.60
45969;DHT22;31676;40.444;-3.668;2022-12-18T14:44:11;22.10;75.60
45969;DHT22;31676;40.444;-3.668;2022-12-18T14:46:41;22.10;75.60
45969;DHT22;31676;40.444;-3.668;2022-12-18T14:51:53;22.10;75.60
45969;DHT22;31676;40.444;-3.668;2022-12-18T14:54:19;22.10;75.60
45969;DHT22;31676;40.444;-3.668;2022-12-18T14:56:49;22.10;75.60
45969;DHT22;31676;40.444;-3.668;2022-12-18T14:59:16;22.20;75.70
45969;DHT22;31676;40.444;-3.668;2022-12-18T15:01:48;22.20;75.70
45969;DHT22;31676;40.444;-3.668;2022-12-18T15:04:29;22.20;75.70
45969;DHT22;31676;40.444;-3.668;2022-12-18T15:09:42;22.20;75.70
45969;DHT22;31676;40.444;-3.668;2022-12-18T15:12:45;22.20;75.70
45969;DHT22;31676;40.444;-3.668;2022-12-18T15:15:03;22.20;75.70
45969;DHT22;31676;40.444;-3.668;2022-12-18T15:17:29;22.20;75.70
45969;DHT22;31676;40.444;-3.668;2022-12-18T15:20:02;22.20;75.60
45969;DHT22;31676;40.444;-3.668;2022-12-18T15:22:30;22.20;75.70
45969;DHT22;31676;40.444;-3.668;2022-12-18T15:24:59;22.20;75.70
45969;DHT22;31676;40.444;-3.668;2022-12-18T15:30:01;22.20;75.60
45969;DHT22;31676;40.444;-3.668;2022-12-18T15:32:27;22.20;75.70
45969;DHT22;31676;40.444;-3.668;2022-12-18T15:35:02;22.20;75.60
45969;DHT22;31676;40.444;-3.668;2022-12-18T15:37:27;22.20;75.60
45969;DHT22;31676;40.444;-3.668;2022-12-18T15:39:53;22.20;75.70
45969;DHT22;31676;40.444;-3.668;2022-12-18T15:42:19;22.20;75.60
45969;DHT22;31676;40.444;-3.668;2022-12-18T15:45:03;22.20;75.60
45969;DHT22;31676;40.444;-3.668;2022-12-18T15:47:29;22.20;75.60
45969;DHT22;31676;40.444;-3.668;2022-12-18T15:49:54;22.20;75.60
45969;DHT22;31676;40.444;-3.668;2022-12-18T15:52:20;22.20;75.70
45969;DHT22;31676;40.444;-3.668;2022-12-18T15:54:51;22.20;75.60
45969;DHT22;31676;40.444;-3.668;2022-12-18T15:57:35;22.20;75.70
45969;DHT22;31676;40.444;-3.668;2022-12-18T16:00:01;22.20;75.70
45969;DHT22;31676;40.444;-3.668;2022-12-18T16:02:27;22.20;75.60
45969;DHT22;31676;40.444;-3.668;2022-12-18T16:04:53;22.20;75.70
45969;DHT22;31676;40.444;-3.668;2022-12-18T16:07:19;22.20;75.70
45969;DHT22;31676;40.444;-3.668;2022-12-18T16:09:45;22.20;75.60
45969;DHT22;31676;40.444;-3.668;2022-12-18T16:12:18;22.20;75.70
45969;DHT22;31676;40.444;-3.668;2022-12-18T16:14:44;22.30;75.70
45969;DHT22;31676;40.444;-3.668;2022-12-18T16:17:11;22.20;75.60
45969;DHT22;31676;40.444;-3.668;2022-12-18T16:19:37;22.20;75.60
45969;DHT22;31676;40.444;-3.668;2022-12-18T16:22:03;22.30;75.70
45969;DHT22;31676;40.444;-3.668;2022-12-18T16:24:31;22.20;75.60
45969;DHT22;31676;40.444;-3.668;2022-12-18T16:26:58;22.20;75.60
45969;DHT22;31676;40.444;-3.668;2022-12-18T16:29:25;22.30;75.70
45969;DHT22;31676;40.444;-3.668;2022-12-18T16:31:56;22.20;75.60
45969;DHT22;31676;40.444;-3.668;2022-12-18T16:34:26;22.20;75.60
45969;DHT22;31676;40.444;-3.668;2022-12-18T16:36:57;22.20;76.30
45969;DHT22;31676;40.444;-3.668;2022-12-18T16:39:23;22.20;75.60
45969;DHT22;31676;40.444;-3.668;2022-12-18T16:41:49;22.20;75.60
45969;DHT22;31676;40.444;-3.668;2022-12-18T16:44:15;22.20;75.60
45969;DHT22;31676;40.444;-3.668;2022-12-18T16:46:41;22.30;75.70
45969;DHT22;31676;40.444;-3.668;2022-12-18T16:49:16;22.20;75.60
45969;DHT22;31676;40.444;-3.668;2022-12-18T16:51:42;22.20;75.60
45969;DHT22;31676;40.444;-3.668;2022-12-18T16:54:08;22.30;75.70
45969;DHT22;31676;40.444;-3.668;2022-12-18T16:56:34;22.30;75.70
45969;DHT22;31676;40.444;-3.668;2022-12-18T16:59:00;22.30;75.70
45969;DHT22;31676;40.444;-3.668;2022-12-18T17:01:26;22.30;75.70
45969;DHT22;31676;40.444;-3.668;2022-12-18T17:03:55;22.30;75.70
45969;DHT22;31676;40.444;-3.668;2022-12-18T17:06:21;22.20;75.60
45969;DHT22;31676;40.444;-3.668;2022-12-18T17:08:47;22.30;75.70